Providence, Rhode Island
Traffic Map
Current Weather Conditions
Providence, Rhode Island
Few Clouds
Few Clouds
39°
Feels Like: 30°
Wind Chill: 30° Ceiling: Unl
Heat Index: 39° Visibility: 10mi
Dew Point: 18° Wind: 16mph
Humidity: 43% Direction: 360° (N)
Pressure: 30.24in Gusts: 25mph
Raw Report DataKPVD 301251Z 36014G22KT 10SM FEW045 FEW300 04/M08 A3024 RMK AO2 SLP239 T00391078
Traffic Incident Summary
Active as of:
Severity:
Category:
InformationThere was an issue retrieving the traffic information for this location. Please try a different location or try again shortly.
Advertisements
Track Severe Weather on mobile